Time;durP1;ratioP1;P1;durP2;ratioP2;P2;SDS_P1;SDS_P2;PMS_P1;PMS_P2;Temp;Humidity;BMP_temperature;BMP_pressure;BME280_temperature;BME280_humidity;BME280_pressure;Samples;Min_cycle;Max_cycle;Signal;HPM_P1;HPM_P2
2022/11/09 00:00:45;;;;;;;22.48;8.68;;;;;;;;;;4920794;29;20056;-77
2022/11/09 00:03:11;;;;;;;18.30;9.20;;;;;;;;;;4919765;29;20047;-77
2022/11/09 00:05:38;;;;;;;18.15;8.98;;;;;;;;;;4920318;29;20147;-77
2022/11/09 00:08:07;;;;;;;19.40;9.07;;;;;;;;;;4920316;29;20047;-77
2022/11/09 00:10:33;;;;;;;21.23;8.95;;;;;;;;;;4920516;29;20103;-77
2022/11/09 00:13:00;;;;;;;23.52;8.25;;;;;;;;;;4920466;29;20075;-77
2022/11/09 00:15:26;;;;;;;16.70;9.27;;;;;;;;;;4919437;29;20040;-77
2022/11/09 00:17:52;;;;;;;19.13;8.90;;;;;;;;;;4920371;29;20044;-77
2022/11/09 00:20:18;;;;;;;18.10;9.68;;;;;;;;;;4920560;29;20244;-77
2022/11/09 00:22:48;;;;;;;24.17;9.20;;;;;;;;;;4920431;29;20040;-76
2022/11/09 00:25:14;;;;;;;19.90;9.00;;;;;;;;;;4919912;29;20044;-77
2022/11/09 00:27:40;;;;;;;21.33;9.68;;;;;;;;;;4920056;29;20036;-77
2022/11/09 00:30:06;;;;;;;20.95;10.48;;;;;;;;;;4919876;29;20056;-77
2022/11/09 00:32:33;;;;;;;18.73;9.90;;;;;;;;;;4919612;29;20160;-77
2022/11/09 00:34:59;;;;;;;20.90;10.68;;;;;;;;;;4920208;29;20052;-77
2022/11/09 00:37:25;;;;;;;17.75;9.60;;;;;;;;;;4920068;29;20087;-77
2022/11/09 00:39:51;;;;;;;21.65;10.52;;;;;;;;;;4919980;29;20122;-77
2022/11/09 00:42:17;;;;;;;24.40;11.38;;;;;;;;;;4919746;29;20051;-77
2022/11/09 00:44:43;;;;;;;18.80;11.13;;;;;;;;;;4919954;29;20080;-77
2022/11/09 00:47:09;;;;;;;19.92;10.80;;;;;;;;;;4919715;29;20036;-77
2022/11/09 00:49:35;;;;;;;23.85;11.13;;;;;;;;;;4919989;29;20099;-77
2022/11/09 00:52:02;;;;;;;20.23;10.75;;;;;;;;;;4919758;29;20048;-78
2022/11/09 00:54:28;;;;;;;19.10;10.60;;;;;;;;;;4919563;29;20048;-78
2022/11/09 00:56:54;;;;;;;19.52;9.90;;;;;;;;;;4919387;29;20047;-77
2022/11/09 00:59:20;;;;;;;24.17;10.60;;;;;;;;;;4919292;29;20076;-78
2022/11/09 01:01:46;;;;;;;26.30;10.70;;;;;;;;;;4919218;29;20127;-78
2022/11/09 01:04:13;;;;;;;20.83;10.88;;;;;;;;;;4926863;29;20047;-77
2022/11/09 01:06:39;;;;;;;24.88;11.65;;;;;;;;;;4938488;29;20051;-78
2022/11/09 01:09:05;;;;;;;24.17;11.13;;;;;;;;;;4938465;29;20051;-78
2022/11/09 01:11:31;;;;;;;23.33;10.52;;;;;;;;;;4938204;29;20047;-77
2022/11/09 01:13:59;;;;;;;21.15;10.80;;;;;;;;;;4938539;29;20059;-78
2022/11/09 01:16:25;;;;;;;24.60;11.70;;;;;;;;;;4938028;29;20039;-78
2022/11/09 01:18:53;;;;;;;26.67;12.13;;;;;;;;;;4938176;29;20059;-78
2022/11/09 01:21:19;;;;;;;23.67;13.23;;;;;;;;;;4938165;29;20086;-78
2022/11/09 01:23:45;;;;;;;26.90;13.20;;;;;;;;;;4937926;29;20043;-78
2022/11/09 01:26:13;;;;;;;23.40;12.30;;;;;;;;;;4937080;29;20095;-78
2022/11/09 01:28:40;;;;;;;21.20;11.93;;;;;;;;;;4918352;29;20047;-78
2022/11/09 01:31:08;;;;;;;22.33;11.90;;;;;;;;;;4918757;29;20411;-78
2022/11/09 01:33:34;;;;;;;18.98;11.63;;;;;;;;;;4918768;29;20075;-78
2022/11/09 01:36:06;;;;;;;24.70;12.95;;;;;;;;;;4918687;29;20407;-77
2022/11/09 01:38:32;;;;;;;25.15;12.60;;;;;;;;;;4919008;29;20043;-77
2022/11/09 01:40:58;;;;;;;23.75;12.88;;;;;;;;;;4918731;29;20077;-77
2022/11/09 01:43:24;;;;;;;27.83;13.32;;;;;;;;;;4917934;29;20135;-77
2022/11/09 01:46:17;;;;;;;28.33;13.40;;;;;;;;;;4918774;29;20040;-77
2022/11/09 01:48:46;;;;;;;28.00;13.25;;;;;;;;;;4916502;29;20051;-78
2022/11/09 01:51:16;;;;;;;31.23;12.77;;;;;;;;;;4918695;29;20135;-77
2022/11/09 01:53:45;;;;;;;24.45;12.40;;;;;;;;;;4918417;29;20048;-78
2022/11/09 01:56:13;;;;;;;23.80;12.55;;;;;;;;;;4917375;29;20060;-78
2022/11/09 01:58:43;;;;;;;21.42;12.93;;;;;;;;;;4918388;29;20550;-77
2022/11/09 02:01:10;;;;;;;27.58;12.88;;;;;;;;;;4918544;29;20103;-77
2022/11/09 02:04:02;;;;;;;24.67;12.80;;;;;;;;;;4918281;29;20040;-78
2022/11/09 02:06:29;;;;;;;26.80;13.90;;;;;;;;;;4903235;29;20171;-77
2022/11/09 02:08:58;;;;;;;24.88;14.23;;;;;;;;;;4918774;29;20134;-77
2022/11/09 02:11:28;;;;;;;24.55;15.30;;;;;;;;;;4918384;29;20051;-77
2022/11/09 02:13:55;;;;;;;28.03;15.33;;;;;;;;;;4918112;29;20044;-78
2022/11/09 02:16:22;;;;;;;25.88;16.38;;;;;;;;;;4918388;29;20138;-78
2022/11/09 02:18:51;;;;;;;30.88;16.80;;;;;;;;;;4918834;29;20099;-77
2022/11/09 02:21:17;;;;;;;26.92;17.23;;;;;;;;;;4918313;29;20044;-77
2022/11/09 02:23:43;;;;;;;35.13;18.27;;;;;;;;;;4917376;29;20116;-77
2022/11/09 02:26:11;;;;;;;34.53;17.95;;;;;;;;;;4917662;29;20496;-77
2022/11/09 02:28:38;;;;;;;29.50;16.63;;;;;;;;;;4917920;29;20048;-77
2022/11/09 02:31:06;;;;;;;31.70;17.92;;;;;;;;;;4918189;29;20059;-77
2022/11/09 02:33:53;;;;;;;31.23;19.05;;;;;;;;;;4918233;29;20568;-78
2022/11/09 02:36:19;;;;;;;32.95;21.02;;;;;;;;;;4918493;29;20044;-78
2022/11/09 02:38:45;;;;;;;30.73;19.83;;;;;;;;;;4918363;29;20063;-77
2022/11/09 02:41:12;;;;;;;31.95;20.23;;;;;;;;;;4917966;29;20484;-78
2022/11/09 02:43:38;;;;;;;34.45;19.98;;;;;;;;;;4918079;29;20067;-78
2022/11/09 02:46:04;;;;;;;35.90;20.38;;;;;;;;;;4918110;29;20067;-78
2022/11/09 02:48:31;;;;;;;37.50;20.80;;;;;;;;;;4917735;29;20151;-78
2022/11/09 02:50:57;;;;;;;41.67;22.02;;;;;;;;;;4917521;29;20040;-78
2022/11/09 02:53:23;;;;;;;46.53;23.02;;;;;;;;;;4918052;29;20525;-78
2022/11/09 02:55:49;;;;;;;40.05;23.02;;;;;;;;;;4919464;29;20083;-78
2022/11/09 02:58:15;;;;;;;36.63;23.05;;;;;;;;;;4922329;29;20052;-78
2022/11/09 03:00:42;;;;;;;48.42;24.17;;;;;;;;;;4921893;29;20592;-77
2022/11/09 03:03:08;;;;;;;39.22;22.90;;;;;;;;;;4921657;29;20048;-78
2022/11/09 03:05:34;;;;;;;35.83;21.50;;;;;;;;;;4921770;29;20492;-78
2022/11/09 03:08:01;;;;;;;33.47;20.48;;;;;;;;;;4921767;29;20052;-77
2022/11/09 03:10:27;;;;;;;33.63;20.90;;;;;;;;;;4921293;29;20500;-78
2022/11/09 03:12:54;;;;;;;41.22;23.10;;;;;;;;;;4921500;29;20448;-77
2022/11/09 03:15:20;;;;;;;45.13;24.27;;;;;;;;;;4921531;29;20055;-77
2022/11/09 03:17:46;;;;;;;36.53;23.75;;;;;;;;;;4921559;29;20071;-77
2022/11/09 03:20:12;;;;;;;37.28;21.92;;;;;;;;;;4920847;29;20546;-77
2022/11/09 03:22:39;;;;;;;35.92;21.35;;;;;;;;;;4921381;29;20048;-78
2022/11/09 03:25:05;;;;;;;35.63;21.25;;;;;;;;;;4921163;29;20048;-77
2022/11/09 03:27:31;;;;;;;32.78;22.40;;;;;;;;;;4920997;29;20043;-78
2022/11/09 03:29:57;;;;;;;38.60;22.60;;;;;;;;;;4921448;29;20056;-77
2022/11/09 03:32:24;;;;;;;39.00;23.65;;;;;;;;;;4921197;29;20044;-78
2022/11/09 03:34:50;;;;;;;36.55;23.50;;;;;;;;;;4920840;29;20127;-77
2022/11/09 03:37:17;;;;;;;44.08;26.80;;;;;;;;;;4920802;29;20036;-77
2022/11/09 03:39:43;;;;;;;37.20;23.50;;;;;;;;;;4921136;29;20044;-78
2022/11/09 03:42:09;;;;;;;38.75;24.65;;;;;;;;;;4920964;29;20111;-78
2022/11/09 03:44:35;;;;;;;43.45;23.35;;;;;;;;;;4921370;29;20054;-77
2022/11/09 03:47:01;;;;;;;41.85;24.13;;;;;;;;;;4921041;29;20040;-78
2022/11/09 03:49:27;;;;;;;39.97;26.23;;;;;;;;;;4920619;29;20377;-77
2022/11/09 03:51:53;;;;;;;42.35;24.77;;;;;;;;;;4920871;29;20036;-77
2022/11/09 03:54:20;;;;;;;37.75;25.08;;;;;;;;;;4921328;29;20188;-77
2022/11/09 03:56:46;;;;;;;35.85;25.65;;;;;;;;;;4920603;29;20044;-78
2022/11/09 03:59:12;;;;;;;43.65;24.65;;;;;;;;;;4921534;29;20523;-77
2022/11/09 04:01:38;;;;;;;38.65;25.42;;;;;;;;;;4920992;29;20036;-77
2022/11/09 04:04:04;;;;;;;46.33;24.17;;;;;;;;;;4921178;29;20504;-78
2022/11/09 04:06:30;;;;;;;38.10;25.08;;;;;;;;;;4920334;29;20039;-77
2022/11/09 04:08:56;;;;;;;39.58;25.73;;;;;;;;;;4920513;29;20044;-78
2022/11/09 04:11:22;;;;;;;40.00;25.40;;;;;;;;;;4920387;29;20052;-77
2022/11/09 04:13:49;;;;;;;36.67;24.40;;;;;;;;;;4920919;29;20044;-77
2022/11/09 04:16:15;;;;;;;37.10;25.75;;;;;;;;;;4920054;29;20040;-77
2022/11/09 04:18:41;;;;;;;42.08;27.38;;;;;;;;;;4920674;29;20058;-77
2022/11/09 04:21:07;;;;;;;42.35;26.10;;;;;;;;;;4920612;29;20039;-77
2022/11/09 04:23:33;;;;;;;45.63;26.40;;;;;;;;;;4919220;29;20127;-77
2022/11/09 04:25:59;;;;;;;45.75;27.45;;;;;;;;;;4919230;29;20051;-77
2022/11/09 04:28:26;;;;;;;44.92;30.08;;;;;;;;;;4919476;29;20554;-77
2022/11/09 04:30:52;;;;;;;48.25;31.40;;;;;;;;;;4919996;29;20059;-77
2022/11/09 04:33:18;;;;;;;51.70;28.77;;;;;;;;;;4920171;29;20047;-77
2022/11/09 04:35:44;;;;;;;44.22;27.75;;;;;;;;;;4919577;29;20044;-77
2022/11/09 04:38:11;;;;;;;47.15;26.25;;;;;;;;;;4919991;29;20040;-78
2022/11/09 04:40:38;;;;;;;41.78;26.92;;;;;;;;;;4919942;29;20165;-77
2022/11/09 04:43:04;;;;;;;47.03;33.35;;;;;;;;;;4917052;29;20131;-78
2022/11/09 04:45:32;;;;;;;43.35;25.15;;;;;;;;;;4918900;29;20055;-77
2022/11/09 04:47:59;;;;;;;42.90;31.27;;;;;;;;;;4918665;29;20074;-77
2022/11/09 04:50:25;;;;;;;47.90;30.42;;;;;;;;;;4919555;29;20385;-77
2022/11/09 04:52:51;;;;;;;38.30;27.02;;;;;;;;;;4918618;29;20048;-77
2022/11/09 04:55:18;;;;;;;40.70;25.90;;;;;;;;;;4918792;29;20148;-77
2022/11/09 04:57:44;;;;;;;51.83;29.52;;;;;;;;;;4919689;29;20054;-77
2022/11/09 05:00:10;;;;;;;51.15;29.05;;;;;;;;;;4917374;29;20459;-78
2022/11/09 05:02:36;;;;;;;50.30;31.25;;;;;;;;;;4919254;29;20040;-76
2022/11/09 05:05:02;;;;;;;56.60;31.55;;;;;;;;;;4919822;29;20526;-76
2022/11/09 05:07:29;;;;;;;43.65;27.38;;;;;;;;;;4918311;29;20048;-77
2022/11/09 05:09:55;;;;;;;45.45;28.83;;;;;;;;;;4919598;29;20072;-77
2022/11/09 05:12:21;;;;;;;48.33;31.35;;;;;;;;;;4919016;29;20047;-77
2022/11/09 05:14:47;;;;;;;42.35;29.67;;;;;;;;;;4919662;29;20044;-78
2022/11/09 05:17:13;;;;;;;42.95;28.33;;;;;;;;;;4919074;29;20037;-77
2022/11/09 05:19:39;;;;;;;38.97;27.02;;;;;;;;;;4918304;29;20056;-77
2022/11/09 05:24:53;;;;;;;44.63;27.02;;;;;;;;;;4918287;29;20531;-77
2022/11/09 05:27:19;;;;;;;35.33;23.77;;;;;;;;;;4915101;29;20524;-77
2022/11/09 05:29:45;;;;;;;36.55;22.63;;;;;;;;;;4918180;29;20047;-77
2022/11/09 05:32:11;;;;;;;41.30;26.33;;;;;;;;;;4918374;29;20051;-77
2022/11/09 05:34:38;;;;;;;40.38;24.48;;;;;;;;;;4918403;29;20047;-77
2022/11/09 05:37:04;;;;;;;47.00;24.25;;;;;;;;;;4918327;29;20512;-77
2022/11/09 05:39:30;;;;;;;35.25;22.73;;;;;;;;;;4917270;29;20047;-77
2022/11/09 05:41:56;;;;;;;33.83;24.25;;;;;;;;;;4915715;29;20040;-76
2022/11/09 05:44:22;;;;;;;34.40;22.85;;;;;;;;;;4918536;29;20052;-76
2022/11/09 05:46:48;;;;;;;30.40;22.05;;;;;;;;;;4918122;29;20040;-77
2022/11/09 05:49:14;;;;;;;35.30;22.63;;;;;;;;;;4919041;29;20056;-77
2022/11/09 05:51:40;;;;;;;27.73;19.38;;;;;;;;;;4919004;29;20503;-77
2022/11/09 05:54:06;;;;;;;27.67;19.60;;;;;;;;;;4918939;29;20051;-77
2022/11/09 05:56:33;;;;;;;84.15;56.22;;;;;;;;;;4918940;29;20048;-76
2022/11/09 05:58:59;;;;;;;30.67;22.25;;;;;;;;;;4919126;29;20055;-77
2022/11/09 06:01:25;;;;;;;31.60;20.20;;;;;;;;;;4918898;29;20044;-77
2022/11/09 06:03:53;;;;;;;24.90;18.33;;;;;;;;;;4918837;29;20040;-77
2022/11/09 06:06:19;;;;;;;26.95;18.55;;;;;;;;;;4918829;29;20491;-77
2022/11/09 06:08:45;;;;;;;28.05;18.67;;;;;;;;;;4919322;29;20056;-77
2022/11/09 06:11:12;;;;;;;29.83;19.98;;;;;;;;;;4918611;29;20044;-77
2022/11/09 06:13:38;;;;;;;29.67;18.60;;;;;;;;;;4918959;29;20040;-77
2022/11/09 06:16:05;;;;;;;30.63;23.58;;;;;;;;;;4918701;29;20043;-76
2022/11/09 06:18:32;;;;;;;31.50;18.35;;;;;;;;;;4919476;29;20044;-77
2022/11/09 06:20:59;;;;;;;26.98;17.80;;;;;;;;;;4918646;29;20040;-77
2022/11/09 06:23:25;;;;;;;28.42;17.13;;;;;;;;;;4918696;29;20068;-77
2022/11/09 06:25:52;;;;;;;28.83;17.13;;;;;;;;;;4918416;29;20121;-77
2022/11/09 06:28:19;;;;;;;27.13;17.35;;;;;;;;;;4918763;29;20051;-77
2022/11/09 06:30:45;;;;;;;22.20;17.00;;;;;;;;;;4918517;29;20052;-77
2022/11/09 06:33:12;;;;;;;28.80;18.95;;;;;;;;;;4918239;29;20411;-77
2022/11/09 06:35:38;;;;;;;24.48;17.45;;;;;;;;;;4918248;29;20535;-77
2022/11/09 06:38:04;;;;;;;43.08;23.52;;;;;;;;;;4918492;29;20048;-77
2022/11/09 06:40:30;;;;;;;25.00;17.10;;;;;;;;;;4918213;29;20523;-77
2022/11/09 06:43:00;;;;;;;44.45;31.90;;;;;;;;;;4917823;29;20103;-77
2022/11/09 06:45:27;;;;;;;30.88;20.98;;;;;;;;;;4918079;29;20119;-77
2022/11/09 06:48:01;;;;;;;28.23;17.70;;;;;;;;;;4932617;29;20381;-77
2022/11/09 06:50:29;;;;;;;28.33;17.38;;;;;;;;;;4917617;29;20040;-78
2022/11/09 06:52:56;;;;;;;25.73;16.85;;;;;;;;;;4917788;29;20128;-77
2022/11/09 06:55:22;;;;;;;21.90;16.48;;;;;;;;;;4917680;29;20036;-77
2022/11/09 06:57:48;;;;;;;26.55;16.70;;;;;;;;;;4918057;29;20058;-76
2022/11/09 07:00:15;;;;;;;22.73;16.85;;;;;;;;;;4918317;29;20048;-76
2022/11/09 07:02:42;;;;;;;24.35;16.02;;;;;;;;;;4918391;29;20048;-76
2022/11/09 07:05:08;;;;;;;18.70;14.00;;;;;;;;;;4917967;29;20483;-77
2022/11/09 07:07:34;;;;;;;20.65;14.77;;;;;;;;;;4917864;29;20039;-81
2022/11/09 07:10:00;;;;;;;19.38;13.93;;;;;;;;;;4917449;29;20048;-79
2022/11/09 07:12:26;;;;;;;22.27;13.70;;;;;;;;;;4917886;29;20379;-78
2022/11/09 07:14:52;;;;;;;21.25;14.70;;;;;;;;;;4916900;29;20048;-79
2022/11/09 07:17:19;;;;;;;22.83;14.02;;;;;;;;;;4917886;29;20121;-79
2022/11/09 07:19:45;;;;;;;22.38;13.98;;;;;;;;;;4918231;29;20135;-79
2022/11/09 07:22:11;;;;;;;19.40;13.52;;;;;;;;;;4917814;29;20036;-79
2022/11/09 07:24:37;;;;;;;18.88;12.88;;;;;;;;;;4917700;29;20063;-79
2022/11/09 07:27:03;;;;;;;23.33;13.43;;;;;;;;;;4917524;29;20048;-79
2022/11/09 07:29:29;;;;;;;17.23;11.95;;;;;;;;;;4918047;29;20056;-79
2022/11/09 07:31:55;;;;;;;19.52;12.95;;;;;;;;;;4918012;29;20524;-78
2022/11/09 07:34:22;;;;;;;19.92;11.60;;;;;;;;;;4917436;29;20048;-79
2022/11/09 07:36:48;;;;;;;21.85;12.02;;;;;;;;;;4917969;29;20040;-78
2022/11/09 07:39:14;;;;;;;21.75;12.45;;;;;;;;;;4917818;29;20112;-79
2022/11/09 07:41:40;;;;;;;20.75;13.73;;;;;;;;;;4918740;29;20071;-79
2022/11/09 07:44:06;;;;;;;18.77;13.07;;;;;;;;;;4921065;29;20055;-79
2022/11/09 07:46:34;;;;;;;17.00;11.45;;;;;;;;;;4921280;29;20071;-79
2022/11/09 07:49:00;;;;;;;19.75;15.30;;;;;;;;;;4921594;29;20106;-78
2022/11/09 07:51:26;;;;;;;17.20;14.13;;;;;;;;;;4921490;29;20484;-78
2022/11/09 07:53:52;;;;;;;22.05;17.75;;;;;;;;;;4921133;29;20040;-79
2022/11/09 07:56:18;;;;;;;17.75;13.85;;;;;;;;;;4920959;29;20036;-78
2022/11/09 07:58:44;;;;;;;19.75;13.00;;;;;;;;;;4921089;29;20052;-79
2022/11/09 08:01:11;;;;;;;15.57;10.70;;;;;;;;;;4920707;29;20043;-79
2022/11/09 08:03:37;;;;;;;15.70;10.95;;;;;;;;;;4920659;29;20448;-79
2022/11/09 08:06:03;;;;;;;17.13;11.40;;;;;;;;;;4920897;29;20071;-79
2022/11/09 08:08:29;;;;;;;18.80;9.75;;;;;;;;;;4920951;29;20048;-78
2022/11/09 08:10:56;;;;;;;17.35;10.82;;;;;;;;;;4920707;29;20048;-78
2022/11/09 08:13:23;;;;;;;14.82;10.15;;;;;;;;;;4920982;29;20036;-78
2022/11/09 08:15:49;;;;;;;18.05;10.45;;;;;;;;;;4920751;29;20082;-79
2022/11/09 08:18:16;;;;;;;16.27;9.75;;;;;;;;;;4920518;29;20052;-78
2022/11/09 08:20:43;;;;;;;15.65;9.57;;;;;;;;;;4920862;29;20048;-79
2022/11/09 08:23:15;;;;;;;16.50;10.23;;;;;;;;;;4920873;29;20059;-78
2022/11/09 08:25:41;;;;;;;13.52;9.07;;;;;;;;;;4920254;29;20040;-79
2022/11/09 08:28:08;;;;;;;14.95;9.45;;;;;;;;;;4920457;29;20040;-79
2022/11/09 08:30:34;;;;;;;13.80;9.27;;;;;;;;;;4935236;29;20077;-79
2022/11/09 08:33:01;;;;;;;14.80;9.52;;;;;;;;;;4935020;29;20400;-79
2022/11/09 08:35:28;;;;;;;19.42;9.85;;;;;;;;;;4920415;29;20039;-78
2022/11/09 08:37:54;;;;;;;13.35;8.77;;;;;;;;;;4920261;29;20074;-78
2022/11/09 08:40:22;;;;;;;15.32;9.55;;;;;;;;;;4920411;29;20036;-79
2022/11/09 08:42:48;;;;;;;13.00;10.02;;;;;;;;;;4919766;29;20439;-79
2022/11/09 08:45:14;;;;;;;16.73;11.77;;;;;;;;;;4919632;29;20036;-78
2022/11/09 08:47:41;;;;;;;17.83;11.25;;;;;;;;;;4919713;29;20443;-79
2022/11/09 08:50:08;;;;;;;20.77;11.23;;;;;;;;;;4920181;29;20084;-78
2022/11/09 08:52:34;;;;;;;15.32;11.93;;;;;;;;;;4918505;29;20462;-78
2022/11/09 08:55:00;;;;;;;19.00;12.20;;;;;;;;;;4919559;29;20436;-78
2022/11/09 08:57:27;;;;;;;24.15;15.75;;;;;;;;;;4919495;29;20072;-78
2022/11/09 08:59:53;;;;;;;17.83;11.95;;;;;;;;;;4934427;29;20466;-79
2022/11/09 09:02:19;;;;;;;16.55;11.90;;;;;;;;;;4919367;29;20054;-79
2022/11/09 09:04:45;;;;;;;20.45;11.73;;;;;;;;;;4919761;29;20492;-79
2022/11/09 09:07:12;;;;;;;21.58;12.25;;;;;;;;;;4919783;29;20040;-78
2022/11/09 09:09:38;;;;;;;21.98;12.88;;;;;;;;;;4919577;29;20052;-79
2022/11/09 09:12:05;;;;;;;19.63;13.32;;;;;;;;;;4919215;29;20139;-79
2022/11/09 09:14:31;;;;;;;33.75;26.67;;;;;;;;;;4919103;29;20379;-79
2022/11/09 09:16:57;;;;;;;23.08;13.05;;;;;;;;;;4919063;29;20134;-79
2022/11/09 09:19:23;;;;;;;23.05;14.45;;;;;;;;;;4919792;29;20047;-79
2022/11/09 09:21:50;;;;;;;25.92;19.15;;;;;;;;;;4933879;29;20559;-79
2022/11/09 09:24:16;;;;;;;23.30;13.80;;;;;;;;;;4919161;29;20044;-79
2022/11/09 09:26:44;;;;;;;23.52;15.27;;;;;;;;;;4918766;29;20147;-78
2022/11/09 09:29:12;;;;;;;26.83;15.80;;;;;;;;;;4919316;29;20056;-79
2022/11/09 09:31:38;;;;;;;18.80;12.05;;;;;;;;;;4919418;29;20063;-78
2022/11/09 09:34:04;;;;;;;16.13;11.20;;;;;;;;;;4919267;29;20048;-78
2022/11/09 09:36:30;;;;;;;16.25;11.15;;;;;;;;;;4919014;29;20043;-79
2022/11/09 09:38:57;;;;;;;19.42;13.00;;;;;;;;;;4919546;29;20059;-79
2022/11/09 09:41:42;;;;;;;17.48;13.45;;;;;;;;;;4918632;29;20036;-79
2022/11/09 09:44:16;;;;;;;26.73;14.82;;;;;;;;;;4918682;29;20064;-79
2022/11/09 09:47:05;;;;;;;20.35;14.27;;;;;;;;;;4919133;29;20075;-78
2022/11/09 09:49:34;;;;;;;20.65;15.20;;;;;;;;;;4915514;29;20052;-78
2022/11/09 09:52:09;;;;;;;20.95;13.35;;;;;;;;;;4918942;29;20036;-79
2022/11/09 09:54:50;;;;;;;16.35;12.27;;;;;;;;;;4918797;29;20047;-79
2022/11/09 09:57:18;;;;;;;20.20;12.32;;;;;;;;;;4918750;29;20107;-79
2022/11/09 09:59:47;;;;;;;17.67;12.02;;;;;;;;;;4918767;29;20083;-79
2022/11/09 10:02:26;;;;;;;16.98;9.60;;;;;;;;;;4918303;29;20047;-78
2022/11/09 10:04:54;;;;;;;17.10;9.02;;;;;;;;;;4918538;29;20534;-79
2022/11/09 10:07:26;;;;;;;14.75;8.38;;;;;;;;;;4918541;29;20040;-78
2022/11/09 10:10:07;;;;;;;23.80;8.98;;;;;;;;;;4918476;29;20130;-79
2022/11/09 10:12:40;;;;;;;17.90;8.30;;;;;;;;;;4918789;29;20048;-79
2022/11/09 10:15:20;;;;;;;10.65;6.80;;;;;;;;;;4918644;29;20512;-79
2022/11/09 10:17:46;;;;;;;11.37;6.17;;;;;;;;;;4918793;29;20130;-79
2022/11/09 10:20:14;;;;;;;15.55;8.15;;;;;;;;;;4918246;29;20244;-78
2022/11/09 10:22:52;;;;;;;11.13;5.18;;;;;;;;;;4918339;29;20040;-79
2022/11/09 10:25:21;;;;;;;13.07;5.35;;;;;;;;;;4918202;29;20052;-79
2022/11/09 10:28:01;;;;;;;8.98;5.07;;;;;;;;;;4918501;29;20075;-79
2022/11/09 10:30:28;;;;;;;11.48;4.38;;;;;;;;;;4918385;29;20074;-79
2022/11/09 10:32:55;;;;;;;11.18;4.55;;;;;;;;;;4917989;29;20051;-80
2022/11/09 10:35:26;;;;;;;11.80;4.90;;;;;;;;;;4918403;29;20040;-78
2022/11/09 10:37:53;;;;;;;9.25;4.43;;;;;;;;;;4917918;29;20390;-79
2022/11/09 10:40:41;;;;;;;10.07;3.85;;;;;;;;;;4918195;29;20048;-79
2022/11/09 10:43:14;;;;;;;8.38;3.53;;;;;;;;;;4918277;29;20060;-79
2022/11/09 10:45:41;;;;;;;13.13;4.75;;;;;;;;;;4918262;29;20040;-79
2022/11/09 10:48:08;;;;;;;8.98;3.95;;;;;;;;;;4918129;29;20059;-78
2022/11/09 10:50:46;;;;;;;9.25;4.10;;;;;;;;;;4917970;29;20052;-78
2022/11/09 10:53:17;;;;;;;11.75;4.05;;;;;;;;;;4918535;29;20499;-78
2022/11/09 10:55:53;;;;;;;11.57;3.63;;;;;;;;;;4917888;29;20040;-78
2022/11/09 10:58:19;;;;;;;8.00;3.33;;;;;;;;;;4918450;29;20082;-79
2022/11/09 11:01:15;;;;;;;9.40;3.65;;;;;;;;;;4932746;29;20403;-78
2022/11/09 11:03:42;;;;;;;10.20;3.58;;;;;;;;;;4909120;29;20059;-79
2022/11/09 11:06:11;;;;;;;7.35;3.47;;;;;;;;;;4917932;29;20032;-78
2022/11/09 11:08:38;;;;;;;9.73;3.83;;;;;;;;;;4917892;29;20135;-79
2022/11/09 11:11:14;;;;;;;6.57;3.47;;;;;;;;;;4917795;29;20096;-79
2022/11/09 11:13:40;;;;;;;9.50;3.45;;;;;;;;;;4918431;29;20039;-79
2022/11/09 11:16:35;;;;;;;9.43;3.13;;;;;;;;;;4918833;29;20554;-79
2022/11/09 11:19:02;;;;;;;11.73;3.08;;;;;;;;;;4907819;29;20082;-78
2022/11/09 11:21:28;;;;;;;7.18;2.95;;;;;;;;;;4921477;29;20103;-79
2022/11/09 11:24:15;;;;;;;7.03;2.90;;;;;;;;;;4921373;29;20040;-79
2022/11/09 11:26:45;;;;;;;6.80;3.53;;;;;;;;;;4921066;29;20124;-79
2022/11/09 11:29:30;;;;;;;9.60;4.30;;;;;;;;;;4921759;29;20083;-79
2022/11/09 11:31:56;;;;;;;9.40;4.00;;;;;;;;;;4920996;29;20044;-79
2022/11/09 11:34:23;;;;;;;8.63;4.03;;;;;;;;;;4921228;29;20044;-79
2022/11/09 11:36:54;;;;;;;9.07;4.22;;;;;;;;;;4920959;29;20040;-79
2022/11/09 11:39:39;;;;;;;9.88;4.55;;;;;;;;;;4921558;29;20048;-79
2022/11/09 11:42:23;;;;;;;8.27;3.83;;;;;;;;;;4936226;29;20036;-79
2022/11/09 11:45:00;;;;;;;9.85;3.95;;;;;;;;;;4921068;29;20079;-78
2022/11/09 11:47:37;;;;;;;8.95;4.13;;;;;;;;;;4921091;29;20047;-79
2022/11/09 11:50:10;;;;;;;8.02;4.32;;;;;;;;;;4921172;29;20055;-79
2022/11/09 11:52:42;;;;;;;8.52;4.07;;;;;;;;;;4921370;29;20052;-79
2022/11/09 11:55:08;;;;;;;8.07;4.28;;;;;;;;;;4920733;29;20060;-79
2022/11/09 11:57:50;;;;;;;9.45;4.35;;;;;;;;;;4920573;29;20066;-79
2022/11/09 12:00:19;;;;;;;7.07;4.45;;;;;;;;;;4920949;29;20048;-79
2022/11/09 12:03:24;;;;;;;10.73;4.63;;;;;;;;;;4920734;29;20072;-79
2022/11/09 12:05:57;;;;;;;9.20;4.40;;;;;;;;;;4880912;29;20049;-79
2022/11/09 12:08:30;;;;;;;10.57;4.22;;;;;;;;;;4881071;29;20158;-78
2022/11/09 12:11:13;;;;;;;9.45;4.43;;;;;;;;;;4902904;29;20095;-79
2022/11/09 12:13:39;;;;;;;9.43;3.75;;;;;;;;;;4920021;29;20087;-78
2022/11/09 12:16:06;;;;;;;8.88;3.90;;;;;;;;;;4920750;29;20043;-79
2022/11/09 12:18:52;;;;;;;4.88;3.58;;;;;;;;;;4920773;29;20082;-79
2022/11/09 12:21:34;;;;;;;6.35;3.28;;;;;;;;;;4920496;29;20123;-78
2022/11/09 12:24:05;;;;;;;7.45;3.95;;;;;;;;;;4920904;29;20060;-78
2022/11/09 12:26:31;;;;;;;10.30;3.70;;;;;;;;;;4919787;29;20072;-78
2022/11/09 12:28:57;;;;;;;6.45;3.47;;;;;;;;;;4920546;29;20062;-78
2022/11/09 12:31:31;;;;;;;12.90;4.05;;;;;;;;;;4920175;29;20048;-78
2022/11/09 12:34:00;;;;;;;7.60;3.28;;;;;;;;;;4920111;29;20074;-78
2022/11/09 12:36:30;;;;;;;6.10;3.28;;;;;;;;;;4920181;29;20123;-78
2022/11/09 12:38:57;;;;;;;;;;;;;;;;;;4921134;29;20085;-78
2022/11/09 12:41:25;;;;;;;7.95;2.92;;;;;;;;;;4919940;29;19911;-79
2022/11/09 12:43:51;;;;;;;5.35;3.15;;;;;;;;;;4919838;29;20048;-79
2022/11/09 12:46:19;;;;;;;9.00;3.40;;;;;;;;;;4919721;29;20071;-78
2022/11/09 12:48:46;;;;;;;7.15;3.47;;;;;;;;;;4919690;29;20063;-78
2022/11/09 12:51:12;;;;;;;6.03;2.80;;;;;;;;;;4919893;29;20074;-78
2022/11/09 12:53:39;;;;;;;7.20;3.20;;;;;;;;;;4919865;29;20044;-78
2022/11/09 12:56:08;;;;;;;9.30;2.85;;;;;;;;;;4919352;29;20032;-79
2022/11/09 12:58:35;;;;;;;9.73;3.15;;;;;;;;;;4920480;29;20040;-79
2022/11/09 13:01:05;;;;;;;7.40;2.97;;;;;;;;;;4919439;29;20040;-78
2022/11/09 13:03:33;;;;;;;6.78;3.03;;;;;;;;;;4917933;29;20048;-78
2022/11/09 13:06:18;;;;;;;5.93;2.53;;;;;;;;;;4919525;29;20048;-78
2022/11/09 13:09:02;;;;;;;6.93;2.85;;;;;;;;;;4918163;29;20048;-79
2022/11/09 13:11:34;;;;;;;7.88;2.70;;;;;;;;;;4918476;29;20044;-78
2022/11/09 13:14:19;;;;;;;4.40;2.72;;;;;;;;;;4918930;29;20040;-78
2022/11/09 13:16:45;;;;;;;8.50;3.40;;;;;;;;;;4918815;29;20047;-78
2022/11/09 13:19:11;;;;;;;5.47;2.63;;;;;;;;;;4919169;29;20056;-79
2022/11/09 13:21:38;;;;;;;5.72;3.03;;;;;;;;;;4918970;29;20040;-78
2022/11/09 13:24:33;;;;;;;5.70;2.58;;;;;;;;;;4919278;29;20202;-78
2022/11/09 13:27:00;;;;;;;5.40;2.30;;;;;;;;;;4910367;29;20044;-78
2022/11/09 13:29:26;;;;;;;5.43;2.63;;;;;;;;;;4919187;29;20047;-79
2022/11/09 13:32:00;;;;;;;3.45;2.25;;;;;;;;;;4919107;29;20043;-78
2022/11/09 13:34:39;;;;;;;5.18;2.08;;;;;;;;;;4919204;29;20102;-78
2022/11/09 13:37:24;;;;;;;3.83;2.10;;;;;;;;;;4919570;29;20040;-78
2022/11/09 13:39:50;;;;;;;3.75;2.30;;;;;;;;;;4917983;29;20067;-78
2022/11/09 13:42:27;;;;;;;6.05;2.45;;;;;;;;;;4919022;29;20051;-79
2022/11/09 13:44:53;;;;;;;4.97;2.70;;;;;;;;;;4919281;29;20067;-78
2022/11/09 13:47:24;;;;;;;4.18;2.28;;;;;;;;;;4919410;29;20511;-79
2022/11/09 13:49:50;;;;;;;;;;;;;;;;;;4918701;29;20094;-78
2022/11/09 13:52:35;;;;;;;4.57;2.13;;;;;;;;;;4918729;29;19919;-78
2022/11/09 13:55:02;;;;;;;5.07;2.60;;;;;;;;;;4918467;29;20040;-79
2022/11/09 13:57:31;;;;;;;5.13;2.13;;;;;;;;;;4918919;29;20496;-78
2022/11/09 13:59:58;;;;;;;5.90;2.40;;;;;;;;;;4918773;29;20048;-78
2022/11/09 14:02:25;;;;;;;6.70;3.15;;;;;;;;;;4931786;29;20127;-78
2022/11/09 14:04:53;;;;;;;6.50;2.83;;;;;;;;;;4937278;29;20503;-76
2022/11/09 14:07:31;;;;;;;4.93;2.50;;;;;;;;;;4937544;29;20039;-76
2022/11/09 14:10:06;;;;;;;4.57;2.58;;;;;;;;;;4898645;29;20119;-75
2022/11/09 14:12:41;;;;;;;5.72;2.33;;;;;;;;;;4899155;29;20079;-76
2022/11/09 14:15:07;;;;;;;2.97;1.55;;;;;;;;;;4899587;29;20070;-77
2022/11/09 14:17:39;;;;;;;2.88;1.33;;;;;;;;;;4900883;29;20037;-77
2022/11/09 14:20:25;;;;;;;1.63;0.95;;;;;;;;;;4925229;29;20051;-77
2022/11/09 14:22:51;;;;;;;1.45;1.00;;;;;;;;;;4936846;29;20051;-77
2022/11/09 14:25:19;;;;;;;2.35;0.90;;;;;;;;;;4937251;29;20040;-76
2022/11/09 14:27:55;;;;;;;1.00;0.80;;;;;;;;;;4937558;29;20521;-76
2022/11/09 14:30:22;;;;;;;1.90;0.80;;;;;;;;;;4937422;29;20074;-76
2022/11/09 14:32:50;;;;;;;0.80;0.57;;;;;;;;;;4937569;29;20039;-76
2022/11/09 14:35:28;;;;;;;1.88;0.80;;;;;;;;;;4937319;29;20119;-76
2022/11/09 14:37:58;;;;;;;4.80;0.95;;;;;;;;;;4936964;29;20131;-76